Wetterdaten: Woche 05.05.14 - 11.05.14 (KW19)
Datum Zeit Temperatur Luftfeuchte Luftdruck Niederschlag Windrichtung Sonnenschein Solar Wind
05.05.2014 00:00 3,4 C 89 % 1018,6 hPa 0,0 l/m N 0,00 h 0 W/m 0,8 km/h (0 Bft)
05.05.2014 01:00 3,1 C 90 % 1018,4 hPa 0,0 l/m N 0,00 h 0 W/m 1,3 km/h (1 Bft)
05.05.2014 02:00 2,7 C 91 % 1018,0 hPa 0,0 l/m O 0,00 h 0 W/m 1,7 km/h (1 Bft)
05.05.2014 03:00 2,4 C 92 % 1017,6 hPa 0,0 l/m N 0,00 h 0 W/m 0,0 km/h (0 Bft)
05.05.2014 04:00 2,6 C 91 % 1017,2 hPa 0,0 l/m O-NO 0,00 h 0 W/m 4,4 km/h (1 Bft)
05.05.2014 05:00 2,6 C 91 % 1017,0 hPa 0,0 l/m O-NO 0,00 h 0 W/m 5,2 km/h (1 Bft)
05.05.2014 06:00 2,8 C 90 % 1017,2 hPa 0,0 l/m N 0,00 h 19 W/m 1,7 km/h (1 Bft)
05.05.2014 07:00 3,9 C 89 % 1017,5 hPa 0,0 l/m NO 0,00 h 83 W/m 3,5 km/h (1 Bft)
05.05.2014 08:00 6,4 C 83 % 1017,6 hPa 0,0 l/m N 0,58 h 266 W/m 6,2 km/h (2 Bft)
05.05.2014 09:00 9,9 C 68 % 1017,5 hPa 0,0 l/m O 1,00 h 489 W/m 9,7 km/h (2 Bft)
05.05.2014 10:00 12,2 C 55 % 1017,2 hPa 0,0 l/m O 1,00 h 641 W/m 14,5 km/h (3 Bft)
05.05.2014 11:00 13,7 C 49 % 1016,7 hPa 0,0 l/m O-SO 1,00 h 739 W/m 13,4 km/h (3 Bft)
05.05.2014 12:00 15,1 C 43 % 1016,4 hPa 0,0 l/m O 1,00 h 811 W/m 11,3 km/h (2 Bft)
05.05.2014 13:00 15,9 C 42 % 1016,1 hPa 0,0 l/m NO 1,00 h 842 W/m 10,3 km/h (2 Bft)
05.05.2014 14:00 17,3 C 39 % 1015,5 hPa 0,0 l/m O-SO 1,00 h 763 W/m 7,6 km/h (2 Bft)
05.05.2014 15:00 17,7 C 40 % 1014,9 hPa 0,0 l/m SW 1,00 h 567 W/m 7,2 km/h (2 Bft)
05.05.2014 16:00 18,4 C 37 % 1014,2 hPa 0,0 l/m S-SW 1,00 h 517 W/m 8,3 km/h (2 Bft)
05.05.2014 17:00 18,8 C 37 % 1013,7 hPa 0,0 l/m O-SO 1,00 h 409 W/m 8,2 km/h (2 Bft)
05.05.2014 18:00 18,1 C 39 % 1013,6 hPa 0,0 l/m O-NO 0,92 h 259 W/m 9,0 km/h (2 Bft)
05.05.2014 19:00 17,1 C 42 % 1013,3 hPa 0,0 l/m O-NO 0,58 h 102 W/m 6,7 km/h (2 Bft)
05.05.2014 20:00 13,6 C 61 % 1013,6 hPa 0,0 l/m N 0,00 h 13 W/m 1,7 km/h (1 Bft)
05.05.2014 21:00 10,4 C 70 % 1013,9 hPa 0,0 l/m N 0,00 h 0 W/m 1,5 km/h (1 Bft)
05.05.2014 22:00 9,4 C 73 % 1014,0 hPa 0,0 l/m N 0,00 h 0 W/m 1,7 km/h (1 Bft)
05.05.2014 23:00 8,2 C 78 % 1014,0 hPa 0,0 l/m N 0,00 h 0 W/m 0,5 km/h (0 Bft)
06.05.2014 00:00 7,1 C 83 % 1013,9 hPa 0,0 l/m N 0,00 h 0 W/m 0,0 km/h (0 Bft)
06.05.2014 01:00 6,1 C 87 % 1013,7 hPa 0,0 l/m N 0,00 h 0 W/m 0,0 km/h (0 Bft)
06.05.2014 02:00 5,3 C 90 % 1013,3 hPa 0,0 l/m N 0,00 h 0 W/m 0,0 km/h (0 Bft)
06.05.2014 03:00 5,0 C 92 % 1013,1 hPa 0,0 l/m N 0,00 h 0 W/m 0,0 km/h (0 Bft)
06.05.2014 04:00 4,6 C 93 % 1012,9 hPa 0,0 l/m N 0,00 h 0 W/m 0,0 km/h (0 Bft)
06.05.2014 05:00 4,3 C 93 % 1013,1 hPa 0,0 l/m N 0,00 h 0 W/m 0,0 km/h (0 Bft)
06.05.2014 06:00 3,7 C 94 % 1013,4 hPa 0,0 l/m N 0,00 h 29 W/m 0,0 km/h (0 Bft)
06.05.2014 07:00 6,1 C 90 % 1013,7 hPa 0,0 l/m O-NO 0,42 h 136 W/m 0,0 km/h (0 Bft)
06.05.2014 08:00 10,0 C 83 % 1013,8 hPa 0,0 l/m O 0,67 h 243 W/m 4,0 km/h (1 Bft)
06.05.2014 09:00 13,6 C 75 % 1013,6 hPa 0,0 l/m S-SW 0,67 h 388 W/m 11,7 km/h (2 Bft)
06.05.2014 10:00 15,9 C 64 % 1013,3 hPa 0,0 l/m W-SW 0,25 h 382 W/m 20,4 km/h (4 Bft)
06.05.2014 11:00 17,8 C 58 % 1013,1 hPa 0,0 l/m SW 0,75 h 585 W/m 18,8 km/h (3 Bft)
06.05.2014 12:00 18,6 C 53 % 1012,9 hPa 0,0 l/m W-SW 0,25 h 436 W/m 20,6 km/h (4 Bft)
06.05.2014 13:00 19,3 C 52 % 1012,7 hPa 0,0 l/m W 0,58 h 479 W/m 26,0 km/h (4 Bft)
06.05.2014 14:00 18,9 C 46 % 1012,6 hPa 0,0 l/m W-SW 0,08 h 340 W/m 23,9 km/h (4 Bft)
06.05.2014 15:00 19,4 C 40 % 1012,1 hPa 0,0 l/m W 0,00 h 333 W/m 23,0 km/h (4 Bft)
06.05.2014 16:00 18,9 C 44 % 1012,2 hPa 0,0 l/m SW 0,00 h 187 W/m 18,4 km/h (3 Bft)
06.05.2014 17:00 18,7 C 46 % 1012,0 hPa 0,0 l/m W-SW 0,08 h 154 W/m 16,0 km/h (3 Bft)
06.05.2014 18:00 17,6 C 51 % 1012,1 hPa 0,0 l/m W-SW 0,00 h 41 W/m 13,3 km/h (3 Bft)
06.05.2014 19:00 16,5 C 55 % 1012,0 hPa 0,0 l/m W-SW 0,00 h 27 W/m 12,3 km/h (3 Bft)
06.05.2014 20:00 15,4 C 61 % 1012,4 hPa 0,0 l/m W-SW 0,00 h 11 W/m 4,1 km/h (1 Bft)
06.05.2014 21:00 14,3 C 67 % 1012,8 hPa 0,0 l/m W-SW 0,00 h 0 W/m 3,2 km/h (1 Bft)
06.05.2014 22:00 14,5 C 61 % 1012,9 hPa 0,0 l/m SW 0,00 h 0 W/m 16,5 km/h (3 Bft)
06.05.2014 23:00 15,0 C 57 % 1012,6 hPa 0,0 l/m W 0,00 h 0 W/m 24,0 km/h (4 Bft)
07.05.2014 00:00 14,4 C 63 % 1012,2 hPa 0,0 l/m SW 0,00 h 0 W/m 15,7 km/h (3 Bft)
07.05.2014 01:00 13,4 C 71 % 1012,0 hPa 0,0 l/m W-SW 0,00 h 0 W/m 14,9 km/h (3 Bft)
07.05.2014 02:00 12,6 C 79 % 1011,6 hPa 0,0 l/m SW 0,00 h 0 W/m 16,1 km/h (3 Bft)
07.05.2014 03:00 11,5 C 88 % 1011,4 hPa 0,2 l/m SW 0,00 h 0 W/m 13,8 km/h (3 Bft)
07.05.2014 04:00 11,5 C 89 % 1011,2 hPa 0,0 l/m W-SW 0,00 h 0 W/m 21,9 km/h (4 Bft)
07.05.2014 05:00 11,8 C 87 % 1011,0 hPa 0,0 l/m W-SW 0,00 h 0 W/m 26,5 km/h (4 Bft)
07.05.2014 06:00 11,4 C 90 % 1011,1 hPa 0,0 l/m SW 0,00 h 11 W/m 13,4 km/h (3 Bft)
07.05.2014 07:00 11,0 C 94 % 1011,2 hPa 1,0 l/m SW 0,00 h 13 W/m 14,0 km/h (3 Bft)
07.05.2014 08:00 10,8 C 96 % 1011,4 hPa 1,8 l/m W-SW 0,00 h 40 W/m 16,8 km/h (3 Bft)
07.05.2014 09:00 11,0 C 96 % 1011,8 hPa 0,4 l/m SW 0,00 h 66 W/m 17,8 km/h (3 Bft)
07.05.2014 10:00 11,3 C 96 % 1012,4 hPa 0,8 l/m W-SW 0,00 h 71 W/m 15,3 km/h (3 Bft)
07.05.2014 11:00 11,6 C 96 % 1012,5 hPa 0,0 l/m SW 0,00 h 135 W/m 18,0 km/h (3 Bft)
07.05.2014 12:00 12,4 C 92 % 1012,5 hPa 0,0 l/m SW 0,00 h 257 W/m 22,9 km/h (4 Bft)
07.05.2014 13:00 13,5 C 85 % 1012,5 hPa 0,0 l/m SW 0,08 h 322 W/m 20,2 km/h (4 Bft)
07.05.2014 14:00 14,1 C 80 % 1012,5 hPa 0,0 l/m W-SW 0,00 h 252 W/m 24,7 km/h (4 Bft)
07.05.2014 15:00 11,9 C 86 % 1012,7 hPa 2,4 l/m W-NW 0,00 h 82 W/m 13,8 km/h (3 Bft)
07.05.2014 16:00 11,4 C 91 % 1012,9 hPa 2,6 l/m W-SW 0,67 h 510 W/m 15,4 km/h (3 Bft)
07.05.2014 17:00 13,2 C 82 % 1012,7 hPa 0,0 l/m W-SW 0,25 h 244 W/m 19,4 km/h (3 Bft)
07.05.2014 18:00 12,9 C 75 % 1013,0 hPa 0,0 l/m W-NW 0,33 h 165 W/m 17,0 km/h (3 Bft)
07.05.2014 19:00 12,5 C 73 % 1013,7 hPa 0,0 l/m W-NW 0,42 h 109 W/m 10,6 km/h (2 Bft)
07.05.2014 20:00 10,8 C 82 % 1014,5 hPa 0,0 l/m W 0,00 h 6 W/m 5,1 km/h (1 Bft)
07.05.2014 21:00 9,4 C 90 % 1015,3 hPa 1,4 l/m W 0,00 h 0 W/m 13,1 km/h (3 Bft)
07.05.2014 22:00 8,5 C 92 % 1015,7 hPa 0,0 l/m W-SW 0,00 h 0 W/m 11,0 km/h (2 Bft)
07.05.2014 23:00 8,7 C 90 % 1015,9 hPa 0,2 l/m W-NW 0,00 h 0 W/m 14,8 km/h (3 Bft)
08.05.2014 00:00 8,4 C 92 % 1016,2 hPa 0,0 l/m W 0,00 h 0 W/m 10,3 km/h (2 Bft)
08.05.2014 01:00 7,9 C 94 % 1016,5 hPa 0,0 l/m SW 0,00 h 0 W/m 11,0 km/h (2 Bft)
08.05.2014 02:00 8,2 C 94 % 1016,5 hPa 0,0 l/m SW 0,00 h 0 W/m 9,3 km/h (2 Bft)
08.05.2014 03:00 8,4 C 96 % 1016,4 hPa 0,2 l/m SW 0,00 h 0 W/m 12,0 km/h (2 Bft)
08.05.2014 04:00 8,0 C 96 % 1016,5 hPa 0,0 l/m SW 0,00 h 0 W/m 10,5 km/h (2 Bft)
08.05.2014 05:00 7,1 C 97 % 1016,4 hPa 0,0 l/m SW 0,00 h 5 W/m 8,7 km/h (2 Bft)
08.05.2014 06:00 7,6 C 98 % 1016,6 hPa 0,0 l/m SW 0,08 h 35 W/m 11,7 km/h (2 Bft)
08.05.2014 07:00 8,6 C 98 % 1016,7 hPa 0,0 l/m SW 0,08 h 37 W/m 11,0 km/h (2 Bft)
08.05.2014 08:00 9,1 C 98 % 1017,0 hPa 0,0 l/m SW 0,08 h 100 W/m 12,9 km/h (3 Bft)
08.05.2014 09:00 11,2 C 92 % 1017,0 hPa 0,0 l/m SW 0,33 h 281 W/m 17,0 km/h (3 Bft)
08.05.2014 10:00 13,3 C 81 % 1016,9 hPa 0,0 l/m W-SW 0,83 h 540 W/m 23,3 km/h (4 Bft)
08.05.2014 11:00 14,4 C 74 % 1016,7 hPa 0,2 l/m W-SW 0,67 h 554 W/m 25,9 km/h (4 Bft)
08.05.2014 12:00 15,5 C 66 % 1016,0 hPa 0,0 l/m SW 0,83 h 591 W/m 29,2 km/h (5 Bft)
08.05.2014 13:00 16,5 C 62 % 1015,6 hPa 0,0 l/m SW 0,67 h 644 W/m 26,0 km/h (4 Bft)
08.05.2014 14:00 17,4 C 57 % 1015,0 hPa 0,0 l/m W 0,58 h 582 W/m 21,2 km/h (4 Bft)
08.05.2014 15:00 18,0 C 55 % 1014,7 hPa 0,0 l/m SW 1,00 h 763 W/m 26,3 km/h (4 Bft)
08.05.2014 16:00 18,2 C 54 % 1014,0 hPa 0,0 l/m W-SW 0,83 h 541 W/m 24,9 km/h (4 Bft)
08.05.2014 17:00 17,9 C 55 % 1013,4 hPa 0,0 l/m W-SW 0,42 h 276 W/m 20,1 km/h (4 Bft)
08.05.2014 18:00 17,4 C 55 % 1013,1 hPa 0,0 l/m W-SW 0,42 h 216 W/m 19,3 km/h (3 Bft)
08.05.2014 19:00 16,7 C 58 % 1012,6 hPa 0,0 l/m W-SW 0,08 h 53 W/m 18,4 km/h (3 Bft)
08.05.2014 20:00 15,3 C 66 % 1012,8 hPa 0,0 l/m W-SW 0,00 h 11 W/m 7,3 km/h (2 Bft)
08.05.2014 21:00 15,0 C 70 % 1013,0 hPa 0,0 l/m W-SW 0,00 h 0 W/m 10,9 km/h (2 Bft)
08.05.2014 22:00 14,5 C 74 % 1013,1 hPa 0,0 l/m SW 0,00 h 0 W/m 10,8 km/h (2 Bft)
08.05.2014 23:00 14,3 C 72 % 1013,1 hPa 0,0 l/m W-SW 0,00 h 0 W/m 13,4 km/h (3 Bft)
09.05.2014 00:00 13,7 C 76 % 1013,3 hPa 0,0 l/m W-SW 0,00 h 0 W/m 13,3 km/h (3 Bft)
09.05.2014 01:00 12,2 C 87 % 1013,7 hPa 1,8 l/m W-SW 0,00 h 0 W/m 19,2 km/h (3 Bft)
09.05.2014 02:00 11,3 C 94 % 1013,7 hPa 0,2 l/m SW 0,00 h 0 W/m 15,2 km/h (3 Bft)
09.05.2014 03:00 11,1 C 96 % 1013,7 hPa 0,2 l/m SW 0,00 h 0 W/m 15,8 km/h (3 Bft)
09.05.2014 04:00 11,0 C 97 % 1013,5 hPa 0,2 l/m SW 0,00 h 0 W/m 18,2 km/h (3 Bft)
09.05.2014 05:00 11,1 C 97 % 1013,7 hPa 0,0 l/m SW 0,00 h 0 W/m 18,9 km/h (3 Bft)
09.05.2014 06:00 11,4 C 97 % 1014,1 hPa 0,2 l/m W-SW 0,00 h 8 W/m 14,0 km/h (3 Bft)
09.05.2014 07:00 11,4 C 97 % 1014,5 hPa 0,0 l/m SW 0,00 h 27 W/m 14,5 km/h (3 Bft)
09.05.2014 08:00 11,9 C 97 % 1014,8 hPa 0,0 l/m W-SW 0,00 h 59 W/m 18,4 km/h (3 Bft)
09.05.2014 09:00 12,5 C 95 % 1014,8 hPa 0,0 l/m W-SW 0,00 h 102 W/m 20,5 km/h (4 Bft)
09.05.2014 10:00 13,4 C 92 % 1014,9 hPa 0,0 l/m W-SW 0,08 h 247 W/m 24,3 km/h (4 Bft)
09.05.2014 11:00 14,8 C 86 % 1014,9 hPa 0,0 l/m SW 0,25 h 387 W/m 29,0 km/h (5 Bft)
09.05.2014 12:00 15,9 C 81 % 1014,8 hPa 0,0 l/m W-SW 0,25 h 415 W/m 26,7 km/h (4 Bft)
09.05.2014 13:00 16,9 C 75 % 1014,4 hPa 0,0 l/m W-SW 0,67 h 562 W/m 29,4 km/h (5 Bft)
09.05.2014 14:00 17,5 C 68 % 1014,1 hPa 0,0 l/m W 0,58 h 482 W/m 34,1 km/h (5 Bft)
09.05.2014 15:00 18,0 C 63 % 1013,9 hPa 0,0 l/m W-SW 0,42 h 341 W/m 30,5 km/h (5 Bft)
09.05.2014 16:00 16,7 C 66 % 1014,0 hPa 0,0 l/m W-NW 0,08 h 159 W/m 19,9 km/h (4 Bft)
09.05.2014 17:00 16,6 C 66 % 1014,2 hPa 0,0 l/m W 0,17 h 226 W/m 25,5 km/h (4 Bft)
09.05.2014 18:00 16,9 C 64 % 1013,8 hPa 0,0 l/m W 0,33 h 180 W/m 17,7 km/h (3 Bft)
09.05.2014 19:00 16,8 C 62 % 1013,8 hPa 0,0 l/m W-SW 0,08 h 81 W/m 21,3 km/h (4 Bft)
09.05.2014 20:00 15,3 C 68 % 1014,4 hPa 0,0 l/m W-SW 0,00 h 14 W/m 17,6 km/h (3 Bft)
09.05.2014 21:00 14,5 C 72 % 1015,1 hPa 0,0 l/m W 0,00 h 0 W/m 16,6 km/h (3 Bft)
09.05.2014 22:00 13,7 C 76 % 1015,3 hPa 0,0 l/m W 0,00 h 0 W/m 9,9 km/h (2 Bft)
09.05.2014 23:00 13,0 C 83 % 1015,8 hPa 0,2 l/m SW 0,00 h 0 W/m 11,4 km/h (2 Bft)
10.05.2014 00:00 12,2 C 89 % 1016,3 hPa 0,6 l/m W 0,00 h 0 W/m 13,0 km/h (3 Bft)
10.05.2014 01:00 11,7 C 92 % 1016,6 hPa 1,0 l/m W 0,00 h 0 W/m 12,5 km/h (3 Bft)
10.05.2014 02:00 11,2 C 94 % 1016,6 hPa 0,6 l/m W-SW 0,00 h 0 W/m 7,5 km/h (2 Bft)
10.05.2014 03:00 10,9 C 95 % 1016,4 hPa 0,0 l/m W-SW 0,00 h 0 W/m 9,5 km/h (2 Bft)
10.05.2014 04:00 10,1 C 95 % 1016,3 hPa 0,2 l/m W-SW 0,00 h 0 W/m 3,9 km/h (1 Bft)
10.05.2014 05:00 8,6 C 97 % 1016,2 hPa 0,0 l/m N 0,00 h 5 W/m 0,4 km/h (0 Bft)
10.05.2014 06:00 8,2 C 98 % 1016,1 hPa 0,0 l/m N 0,00 h 25 W/m 0,0 km/h (0 Bft)
10.05.2014 07:00 10,0 C 98 % 1016,0 hPa 0,0 l/m W-SW 0,58 h 150 W/m 2,3 km/h (1 Bft)
10.05.2014 08:00 12,3 C 95 % 1015,6 hPa 0,0 l/m W-SW 0,17 h 160 W/m 10,3 km/h (2 Bft)
10.05.2014 09:00 13,1 C 89 % 1015,2 hPa 0,0 l/m SW 0,17 h 211 W/m 15,3 km/h (3 Bft)
10.05.2014 10:00 14,1 C 80 % 1014,4 hPa 0,0 l/m W 0,00 h 270 W/m 19,2 km/h (3 Bft)
10.05.2014 11:00 15,3 C 75 % 1014,0 hPa 0,0 l/m W-SW 0,42 h 490 W/m 18,5 km/h (3 Bft)
10.05.2014 12:00 16,9 C 70 % 1013,2 hPa 0,0 l/m SW 0,50 h 541 W/m 19,0 km/h (3 Bft)
10.05.2014 13:00 18,1 C 61 % 1012,3 hPa 0,0 l/m W-SW 0,42 h 512 W/m 24,5 km/h (4 Bft)
10.05.2014 14:00 18,4 C 58 % 1011,4 hPa 0,0 l/m W 0,33 h 399 W/m 22,4 km/h (4 Bft)
10.05.2014 15:00 19,3 C 52 % 1010,7 hPa 0,0 l/m W 0,92 h 654 W/m 22,8 km/h (4 Bft)
10.05.2014 16:00 18,9 C 50 % 1010,2 hPa 0,0 l/m W-NW 0,08 h 218 W/m 24,4 km/h (4 Bft)
10.05.2014 17:00 18,2 C 43 % 1010,1 hPa 0,0 l/m W-NW 0,00 h 114 W/m 18,9 km/h (3 Bft)
10.05.2014 18:00 17,1 C 47 % 1009,1 hPa 0,0 l/m W 0,00 h 81 W/m 6,0 km/h (2 Bft)
10.05.2014 19:00 16,4 C 59 % 1008,3 hPa 0,0 l/m W-SW 0,00 h 47 W/m 7,6 km/h (2 Bft)
10.05.2014 20:00 15,9 C 71 % 1008,0 hPa 0,0 l/m SW 0,00 h 16 W/m 10,1 km/h (2 Bft)
10.05.2014 21:00 15,5 C 74 % 1008,1 hPa 0,0 l/m W-SW 0,00 h 0 W/m 12,0 km/h (2 Bft)
10.05.2014 22:00 14,8 C 78 % 1008,0 hPa 0,0 l/m W-SW 0,00 h 0 W/m 7,4 km/h (2 Bft)
10.05.2014 23:00 14,7 C 70 % 1007,8 hPa 0,0 l/m W-SW 0,00 h 0 W/m 9,1 km/h (2 Bft)
11.05.2014 00:00 14,9 C 66 % 1007,5 hPa 0,0 l/m SW 0,00 h 0 W/m 13,4 km/h (3 Bft)
11.05.2014 01:00 15,2 C 69 % 1007,1 hPa 0,0 l/m W-SW 0,00 h 0 W/m 24,8 km/h (4 Bft)
11.05.2014 02:00 14,7 C 74 % 1007,3 hPa 0,0 l/m W 0,00 h 0 W/m 18,1 km/h (3 Bft)
11.05.2014 03:00 13,6 C 82 % 1007,2 hPa 0,0 l/m W-SW 0,00 h 0 W/m 14,2 km/h (3 Bft)
11.05.2014 04:00 12,8 C 83 % 1007,1 hPa 0,6 l/m W 0,00 h 0 W/m 19,9 km/h (4 Bft)
11.05.2014 05:00 10,6 C 86 % 1006,7 hPa 0,0 l/m SW 0,00 h 0 W/m 10,3 km/h (2 Bft)
11.05.2014 06:00 10,1 C 92 % 1006,9 hPa 0,0 l/m SW 0,00 h 14 W/m 5,5 km/h (1 Bft)
11.05.2014 07:00 10,8 C 85 % 1006,8 hPa 0,0 l/m W-SW 0,00 h 36 W/m 15,4 km/h (3 Bft)
11.05.2014 08:00 10,7 C 74 % 1007,3 hPa 0,0 l/m W-SW 0,00 h 47 W/m 18,5 km/h (3 Bft)
11.05.2014 09:00 10,4 C 72 % 1007,5 hPa 0,0 l/m W-SW 0,00 h 78 W/m 19,8 km/h (4 Bft)
11.05.2014 10:00 11,6 C 69 % 1007,8 hPa 0,0 l/m SW 0,17 h 297 W/m 23,1 km/h (4 Bft)
11.05.2014 11:00 12,4 C 62 % 1007,9 hPa 0,0 l/m W 0,25 h 381 W/m 27,4 km/h (4 Bft)
11.05.2014 12:00 13,0 C 57 % 1007,8 hPa 0,0 l/m W-SW 0,00 h 211 W/m 26,1 km/h (4 Bft)
11.05.2014 13:00 13,5 C 56 % 1007,4 hPa 0,0 l/m W-SW 0,50 h 588 W/m 29,1 km/h (5 Bft)
11.05.2014 14:00 15,5 C 45 % 1006,6 hPa 0,0 l/m W-NW 0,75 h 776 W/m 31,2 km/h (5 Bft)
11.05.2014 15:00 16,1 C 44 % 1006,2 hPa 0,0 l/m W 0,75 h 673 W/m 31,0 km/h (5 Bft)
11.05.2014 16:00 15,6 C 45 % 1006,3 hPa 0,0 l/m W-SW 0,42 h 395 W/m 30,2 km/h (5 Bft)
11.05.2014 17:00 10,8 C 68 % 1008,3 hPa 0,2 l/m W 0,08 h 95 W/m 33,7 km/h (5 Bft)
11.05.2014 18:00 9,2 C 77 % 1008,5 hPa 0,0 l/m W-SW 0,50 h 218 W/m 18,0 km/h (3 Bft)
11.05.2014 19:00 9,9 C 73 % 1008,6 hPa 0,0 l/m W-SW 0,50 h 140 W/m 21,6 km/h (4 Bft)
11.05.2014 20:00 9,3 C 74 % 1009,3 hPa 0,0 l/m W-SW 0,00 h 8 W/m 24,0 km/h (4 Bft)
11.05.2014 21:00 7,3 C 86 % 1010,2 hPa 0,0 l/m W-SW 0,00 h 0 W/m 23,9 km/h (4 Bft)
11.05.2014 22:00 6,7 C 89 % 1010,6 hPa 0,0 l/m W-SW 0,00 h 0 W/m 22,1 km/h (4 Bft)
11.05.2014 23:00 6,6 C 88 % 1011,3 hPa 0,0 l/m W-SW 0,00 h 0 W/m 25,2 km/h (4 Bft)
Min-Datum _ 05.05.14 05.05.14 11.05.14 - - - - 05.05.14
_ Min-Zeit 03:35 16:10 16:10 - - - - 00:00
Minimum _ 2,2 C 35 % 1005,9 hPa - - - - 0,0 km/h (0 Bft)
Max-Datum _ 10.05.14 10.05.14 05.05.14 07.05.14 - 05.05.14 10.05.14 11.05.14
_ Max-Zeit 15:55 07:10 00:45 16:00 - 08:00 12:30 14:55
Maximum _ 20,2 C 99 % 1018,7 hPa 2,6 l/m - 0,08 h 1104 W/m 57,9 km/h
W-NW (7 Bft)
Durchschnitt _ 12,5 C 75 % 1013,1 hPa #17,2 l/m W-SW #33:55 h 270 W/m 14,8 km/h (3 Bft)